sensor_id;sensor_type;location;lat;lon;timestamp;temperature;humidity
19039;DHT22;9652;49.014;12.052;2023-02-07T00:01:12;0.70;65.40
19039;DHT22;9652;49.014;12.052;2023-02-07T00:03:42;0.70;65.50
19039;DHT22;9652;49.014;12.052;2023-02-07T00:06:12;0.70;65.50
19039;DHT22;9652;49.014;12.052;2023-02-07T00:08:41;0.70;65.50
19039;DHT22;9652;49.014;12.052;2023-02-07T00:11:10;0.70;65.50
19039;DHT22;9652;49.014;12.052;2023-02-07T00:13:41;0.70;65.40
19039;DHT22;9652;49.014;12.052;2023-02-07T00:16:10;0.60;65.40
19039;DHT22;9652;49.014;12.052;2023-02-07T00:18:39;0.60;65.40
19039;DHT22;9652;49.014;12.052;2023-02-07T00:21:08;0.60;65.40
19039;DHT22;9652;49.014;12.052;2023-02-07T00:23:38;0.60;65.40
19039;DHT22;9652;49.014;12.052;2023-02-07T00:26:06;0.70;65.50
19039;DHT22;9652;49.014;12.052;2023-02-07T00:28:34;0.60;65.60
19039;DHT22;9652;49.014;12.052;2023-02-07T00:31:03;0.60;65.70
19039;DHT22;9652;49.014;12.052;2023-02-07T00:33:33;0.60;65.80
19039;DHT22;9652;49.014;12.052;2023-02-07T00:36:03;0.70;65.90
19039;DHT22;9652;49.014;12.052;2023-02-07T00:38:40;0.70;65.90
19039;DHT22;9652;49.014;12.052;2023-02-07T00:41:07;0.70;65.80
19039;DHT22;9652;49.014;12.052;2023-02-07T00:43:35;0.70;65.60
19039;DHT22;9652;49.014;12.052;2023-02-07T00:46:03;0.70;65.40
19039;DHT22;9652;49.014;12.052;2023-02-07T00:48:32;0.70;65.40
19039;DHT22;9652;49.014;12.052;2023-02-07T00:51:00;0.70;65.40
19039;DHT22;9652;49.014;12.052;2023-02-07T00:53:28;0.70;65.20
19039;DHT22;9652;49.014;12.052;2023-02-07T00:55:55;0.70;65.10
19039;DHT22;9652;49.014;12.052;2023-02-07T00:58:23;0.70;65.00
19039;DHT22;9652;49.014;12.052;2023-02-07T01:00:51;0.70;65.00
19039;DHT22;9652;49.014;12.052;2023-02-07T01:03:18;0.70;64.90
19039;DHT22;9652;49.014;12.052;2023-02-07T01:05:47;0.70;64.90
19039;DHT22;9652;49.014;12.052;2023-02-07T01:08:14;0.70;64.90
19039;DHT22;9652;49.014;12.052;2023-02-07T01:10:43;0.60;64.80
19039;DHT22;9652;49.014;12.052;2023-02-07T01:13:12;0.60;64.90
19039;DHT22;9652;49.014;12.052;2023-02-07T01:15:45;0.60;65.00
19039;DHT22;9652;49.014;12.052;2023-02-07T01:18:15;0.60;65.10
19039;DHT22;9652;49.014;12.052;2023-02-07T01:20:42;0.60;65.20
19039;DHT22;9652;49.014;12.052;2023-02-07T01:23:11;0.60;65.10
19039;DHT22;9652;49.014;12.052;2023-02-07T01:25:40;0.60;65.10
19039;DHT22;9652;49.014;12.052;2023-02-07T01:28:09;0.50;65.00
19039;DHT22;9652;49.014;12.052;2023-02-07T01:30:38;0.60;65.00
19039;DHT22;9652;49.014;12.052;2023-02-07T01:33:07;0.50;65.00
19039;DHT22;9652;49.014;12.052;2023-02-07T01:35:35;0.50;64.90
19039;DHT22;9652;49.014;12.052;2023-02-07T01:38:03;0.50;64.90
19039;DHT22;9652;49.014;12.052;2023-02-07T01:40:35;0.40;64.70
19039;DHT22;9652;49.014;12.052;2023-02-07T01:43:04;0.40;64.70
19039;DHT22;9652;49.014;12.052;2023-02-07T01:45:34;0.40;64.70
19039;DHT22;9652;49.014;12.052;2023-02-07T01:48:07;0.40;64.70
19039;DHT22;9652;49.014;12.052;2023-02-07T01:50:38;0.30;64.60
19039;DHT22;9652;49.014;12.052;2023-02-07T01:53:11;0.30;64.70
19039;DHT22;9652;49.014;12.052;2023-02-07T01:55:42;0.30;64.90
19039;DHT22;9652;49.014;12.052;2023-02-07T01:58:12;0.30;64.90
19039;DHT22;9652;49.014;12.052;2023-02-07T02:00:40;0.30;65.00
19039;DHT22;9652;49.014;12.052;2023-02-07T02:03:07;0.30;65.10
19039;DHT22;9652;49.014;12.052;2023-02-07T02:05:36;0.30;65.00
19039;DHT22;9652;49.014;12.052;2023-02-07T02:08:05;0.20;65.70
19039;DHT22;9652;49.014;12.052;2023-02-07T02:10:52;0.20;64.90
19039;DHT22;9652;49.014;12.052;2023-02-07T02:13:35;0.20;64.90
19039;DHT22;9652;49.014;12.052;2023-02-07T02:16:15;0.20;64.80
19039;DHT22;9652;49.014;12.052;2023-02-07T02:19:02;0.20;64.80
19039;DHT22;9652;49.014;12.052;2023-02-07T02:22:11;0.20;64.80
19039;DHT22;9652;49.014;12.052;2023-02-07T02:25:08;0.10;64.70
19039;DHT22;9652;49.014;12.052;2023-02-07T02:31:31;0.10;64.70
19039;DHT22;9652;49.014;12.052;2023-02-07T02:34:17;0.10;64.70
19039;DHT22;9652;49.014;12.052;2023-02-07T02:36:54;0.00;64.70
19039;DHT22;9652;49.014;12.052;2023-02-07T02:39:30;0.00;64.70
19039;DHT22;9652;49.014;12.052;2023-02-07T02:42:08;0.00;64.70
19039;DHT22;9652;49.014;12.052;2023-02-07T02:44:43;0.00;64.80
19039;DHT22;9652;49.014;12.052;2023-02-07T02:47:19;0.00;64.80
19039;DHT22;9652;49.014;12.052;2023-02-07T02:49:48;-0.10;64.60
19039;DHT22;9652;49.014;12.052;2023-02-07T02:52:16;-0.10;64.60
19039;DHT22;9652;49.014;12.052;2023-02-07T02:54:43;-0.10;64.70
19039;DHT22;9652;49.014;12.052;2023-02-07T02:57:40;-0.10;64.70
19039;DHT22;9652;49.014;12.052;2023-02-07T03:00:47;-0.10;64.80
19039;DHT22;9652;49.014;12.052;2023-02-07T03:03:38;-0.10;64.80
19039;DHT22;9652;49.014;12.052;2023-02-07T03:09:24;-0.20;64.80
19039;DHT22;9652;49.014;12.052;2023-02-07T03:12:08;-0.20;64.80
19039;DHT22;9652;49.014;12.052;2023-02-07T03:14:48;-0.30;64.70
19039;DHT22;9652;49.014;12.052;2023-02-07T03:17:25;-0.30;64.80
19039;DHT22;9652;49.014;12.052;2023-02-07T03:20:00;-0.30;64.70
19039;DHT22;9652;49.014;12.052;2023-02-07T03:22:34;-0.40;64.60
19039;DHT22;9652;49.014;12.052;2023-02-07T03:25:04;-0.40;64.70
19039;DHT22;9652;49.014;12.052;2023-02-07T03:27:35;-0.40;64.60
19039;DHT22;9652;49.014;12.052;2023-02-07T03:30:07;-0.40;64.70
19039;DHT22;9652;49.014;12.052;2023-02-07T03:32:41;-0.40;64.70
19039;DHT22;9652;49.014;12.052;2023-02-07T03:35:15;-0.40;64.80
19039;DHT22;9652;49.014;12.052;2023-02-07T03:37:51;-0.40;64.80
19039;DHT22;9652;49.014;12.052;2023-02-07T03:40:22;-0.50;64.80
19039;DHT22;9652;49.014;12.052;2023-02-07T03:42:58;-0.50;64.80
19039;DHT22;9652;49.014;12.052;2023-02-07T03:45:29;-0.50;64.90
19039;DHT22;9652;49.014;12.052;2023-02-07T03:47:57;-0.50;65.00
19039;DHT22;9652;49.014;12.052;2023-02-07T03:50:24;-0.60;64.90
19039;DHT22;9652;49.014;12.052;2023-02-07T03:52:52;-0.60;64.90
19039;DHT22;9652;49.014;12.052;2023-02-07T03:55:19;-0.60;64.90
19039;DHT22;9652;49.014;12.052;2023-02-07T03:57:46;-0.60;64.90
19039;DHT22;9652;49.014;12.052;2023-02-07T04:00:14;-0.60;64.90
19039;DHT22;9652;49.014;12.052;2023-02-07T04:02:41;-0.70;64.80
19039;DHT22;9652;49.014;12.052;2023-02-07T04:05:09;-0.70;64.80
19039;DHT22;9652;49.014;12.052;2023-02-07T04:07:36;-0.70;64.80
19039;DHT22;9652;49.014;12.052;2023-02-07T04:10:05;-0.70;64.90
19039;DHT22;9652;49.014;12.052;2023-02-07T04:12:32;-0.80;64.80
19039;DHT22;9652;49.014;12.052;2023-02-07T04:15:00;-0.80;64.80
19039;DHT22;9652;49.014;12.052;2023-02-07T04:17:28;-0.80;64.80
19039;DHT22;9652;49.014;12.052;2023-02-07T04:19:55;-0.80;64.90
19039;DHT22;9652;49.014;12.052;2023-02-07T04:22:22;-0.80;65.00
19039;DHT22;9652;49.014;12.052;2023-02-07T04:24:49;-0.90;64.90
19039;DHT22;9652;49.014;12.052;2023-02-07T04:27:17;-0.90;65.00
19039;DHT22;9652;49.014;12.052;2023-02-07T04:29:44;-0.90;65.00
19039;DHT22;9652;49.014;12.052;2023-02-07T04:32:12;-0.90;65.00
19039;DHT22;9652;49.014;12.052;2023-02-07T04:34:39;-0.90;65.00
19039;DHT22;9652;49.014;12.052;2023-02-07T04:37:06;-1.00;65.00
19039;DHT22;9652;49.014;12.052;2023-02-07T04:39:33;-1.00;65.00
19039;DHT22;9652;49.014;12.052;2023-02-07T04:42:00;-1.00;65.00
19039;DHT22;9652;49.014;12.052;2023-02-07T04:44:29;-1.00;64.90
19039;DHT22;9652;49.014;12.052;2023-02-07T04:46:56;-1.00;64.90
19039;DHT22;9652;49.014;12.052;2023-02-07T04:49:23;-1.00;64.90
19039;DHT22;9652;49.014;12.052;2023-02-07T04:51:50;-1.00;64.90
19039;DHT22;9652;49.014;12.052;2023-02-07T04:54:19;-1.00;64.90
19039;DHT22;9652;49.014;12.052;2023-02-07T04:56:46;-1.10;64.90
19039;DHT22;9652;49.014;12.052;2023-02-07T04:59:13;-1.10;64.90
19039;DHT22;9652;49.014;12.052;2023-02-07T05:01:41;-1.10;64.90
19039;DHT22;9652;49.014;12.052;2023-02-07T05:04:08;-1.10;65.00
19039;DHT22;9652;49.014;12.052;2023-02-07T05:06:35;-1.10;64.90
19039;DHT22;9652;49.014;12.052;2023-02-07T05:09:02;-1.10;64.90
19039;DHT22;9652;49.014;12.052;2023-02-07T05:11:29;-1.20;64.90
19039;DHT22;9652;49.014;12.052;2023-02-07T05:13:56;-1.20;64.90
19039;DHT22;9652;49.014;12.052;2023-02-07T05:16:23;-1.20;64.90
19039;DHT22;9652;49.014;12.052;2023-02-07T05:18:52;-1.20;64.90
19039;DHT22;9652;49.014;12.052;2023-02-07T05:21:19;-1.20;64.90
19039;DHT22;9652;49.014;12.052;2023-02-07T05:23:46;-1.20;64.90
19039;DHT22;9652;49.014;12.052;2023-02-07T05:26:13;-1.20;65.00
19039;DHT22;9652;49.014;12.052;2023-02-07T05:28:41;-1.30;64.90
19039;DHT22;9652;49.014;12.052;2023-02-07T05:31:09;-1.30;64.80
19039;DHT22;9652;49.014;12.052;2023-02-07T05:33:36;-1.20;64.90
19039;DHT22;9652;49.014;12.052;2023-02-07T05:36:03;-1.30;64.80
19039;DHT22;9652;49.014;12.052;2023-02-07T05:38:31;-1.30;64.70
19039;DHT22;9652;49.014;12.052;2023-02-07T05:40:58;-1.30;64.80
19039;DHT22;9652;49.014;12.052;2023-02-07T05:43:25;-1.30;64.70
19039;DHT22;9652;49.014;12.052;2023-02-07T05:45:52;-1.30;64.80
19039;DHT22;9652;49.014;12.052;2023-02-07T05:48:19;-1.40;64.80
19039;DHT22;9652;49.014;12.052;2023-02-07T05:50:46;-1.40;64.70
19039;DHT22;9652;49.014;12.052;2023-02-07T05:53:15;-1.40;64.80
19039;DHT22;9652;49.014;12.052;2023-02-07T05:55:42;-1.40;64.90
19039;DHT22;9652;49.014;12.052;2023-02-07T05:58:09;-1.40;64.90
19039;DHT22;9652;49.014;12.052;2023-02-07T06:00:36;-1.40;64.80
19039;DHT22;9652;49.014;12.052;2023-02-07T06:03:03;-1.50;64.80
19039;DHT22;9652;49.014;12.052;2023-02-07T06:05:30;-1.50;64.90
19039;DHT22;9652;49.014;12.052;2023-02-07T06:07:58;-1.50;64.90
19039;DHT22;9652;49.014;12.052;2023-02-07T06:10:27;-1.50;64.90
19039;DHT22;9652;49.014;12.052;2023-02-07T06:12:54;-1.50;65.00
19039;DHT22;9652;49.014;12.052;2023-02-07T06:15:21;-1.60;64.90
19039;DHT22;9652;49.014;12.052;2023-02-07T06:17:48;-1.50;64.90
19039;DHT22;9652;49.014;12.052;2023-02-07T06:20:15;-1.60;64.90
19039;DHT22;9652;49.014;12.052;2023-02-07T06:22:43;-1.60;64.90
19039;DHT22;9652;49.014;12.052;2023-02-07T06:25:10;-1.60;65.00
19039;DHT22;9652;49.014;12.052;2023-02-07T06:27:39;-1.60;64.90
19039;DHT22;9652;49.014;12.052;2023-02-07T06:30:09;-1.60;65.00
19039;DHT22;9652;49.014;12.052;2023-02-07T06:32:37;-1.60;65.00
19039;DHT22;9652;49.014;12.052;2023-02-07T06:35:06;-1.70;65.00
19039;DHT22;9652;49.014;12.052;2023-02-07T06:37:33;-1.70;65.00
19039;DHT22;9652;49.014;12.052;2023-02-07T06:40:00;-1.70;65.00
19039;DHT22;9652;49.014;12.052;2023-02-07T06:42:28;-1.70;65.00
19039;DHT22;9652;49.014;12.052;2023-02-07T06:44:56;-1.70;65.00
19039;DHT22;9652;49.014;12.052;2023-02-07T06:47:23;-1.70;65.00
19039;DHT22;9652;49.014;12.052;2023-02-07T06:49:50;-1.70;65.10
19039;DHT22;9652;49.014;12.052;2023-02-07T06:52:18;-1.70;65.10
19039;DHT22;9652;49.014;12.052;2023-02-07T06:54:45;-1.70;65.20
19039;DHT22;9652;49.014;12.052;2023-02-07T06:57:12;-1.70;65.20
19039;DHT22;9652;49.014;12.052;2023-02-07T06:59:39;-1.70;65.30
19039;DHT22;9652;49.014;12.052;2023-02-07T07:02:09;-1.70;65.30
19039;DHT22;9652;49.014;12.052;2023-02-07T07:04:37;-1.70;65.40
19039;DHT22;9652;49.014;12.052;2023-02-07T07:07:04;-1.70;65.50
19039;DHT22;9652;49.014;12.052;2023-02-07T07:09:32;-1.70;65.50
19039;DHT22;9652;49.014;12.052;2023-02-07T07:11:59;-1.60;65.50
19039;DHT22;9652;49.014;12.052;2023-02-07T07:14:26;-1.70;65.50
19039;DHT22;9652;49.014;12.052;2023-02-07T07:16:53;-1.60;65.70
19039;DHT22;9652;49.014;12.052;2023-02-07T07:19:22;-1.60;65.70
19039;DHT22;9652;49.014;12.052;2023-02-07T07:21:49;-1.60;65.70
19039;DHT22;9652;49.014;12.052;2023-02-07T07:24:16;-1.60;65.80
19039;DHT22;9652;49.014;12.052;2023-02-07T07:26:43;-1.50;65.90
19039;DHT22;9652;49.014;12.052;2023-02-07T07:29:10;-1.50;66.10
19039;DHT22;9652;49.014;12.052;2023-02-07T07:31:37;-1.50;66.10
19039;DHT22;9652;49.014;12.052;2023-02-07T07:34:04;-1.40;66.20
19039;DHT22;9652;49.014;12.052;2023-02-07T07:36:33;-1.40;66.30
19039;DHT22;9652;49.014;12.052;2023-02-07T07:39:00;-1.40;66.40
19039;DHT22;9652;49.014;12.052;2023-02-07T07:41:27;-1.30;66.50
19039;DHT22;9652;49.014;12.052;2023-02-07T07:43:54;-1.30;66.60
19039;DHT22;9652;49.014;12.052;2023-02-07T07:46:21;-1.20;66.70
19039;DHT22;9652;49.014;12.052;2023-02-07T07:48:48;-1.20;66.70
19039;DHT22;9652;49.014;12.052;2023-02-07T07:51:15;-1.10;66.70
19039;DHT22;9652;49.014;12.052;2023-02-07T07:53:44;-1.10;66.70
19039;DHT22;9652;49.014;12.052;2023-02-07T07:56:11;-1.10;66.70
19039;DHT22;9652;49.014;12.052;2023-02-07T07:58:38;-0.90;66.80
19039;DHT22;9652;49.014;12.052;2023-02-07T08:01:05;-1.00;66.80
19039;DHT22;9652;49.014;12.052;2023-02-07T08:03:32;-0.90;66.90
19039;DHT22;9652;49.014;12.052;2023-02-07T08:05:59;-0.80;67.00
19039;DHT22;9652;49.014;12.052;2023-02-07T08:08:26;-0.80;67.10
19039;DHT22;9652;49.014;12.052;2023-02-07T08:10:55;-0.70;67.10
19039;DHT22;9652;49.014;12.052;2023-02-07T08:13:26;-0.60;67.20
19039;DHT22;9652;49.014;12.052;2023-02-07T08:15:53;-0.50;67.20
19039;DHT22;9652;49.014;12.052;2023-02-07T08:18:20;-0.50;67.20
19039;DHT22;9652;49.014;12.052;2023-02-07T08:20:48;-0.40;67.30
19039;DHT22;9652;49.014;12.052;2023-02-07T08:23:15;-0.30;67.30
19039;DHT22;9652;49.014;12.052;2023-02-07T08:25:43;-0.20;67.30
19039;DHT22;9652;49.014;12.052;2023-02-07T08:28:12;-0.10;67.50
19039;DHT22;9652;49.014;12.052;2023-02-07T08:30:39;0.00;67.50
19039;DHT22;9652;49.014;12.052;2023-02-07T08:33:07;0.10;67.40
19039;DHT22;9652;49.014;12.052;2023-02-07T08:35:35;0.10;67.30
19039;DHT22;9652;49.014;12.052;2023-02-07T08:38:02;0.20;67.40
19039;DHT22;9652;49.014;12.052;2023-02-07T08:40:29;0.30;67.40
19039;DHT22;9652;49.014;12.052;2023-02-07T08:42:56;0.40;67.40
19039;DHT22;9652;49.014;12.052;2023-02-07T08:45:26;0.40;67.30
19039;DHT22;9652;49.014;12.052;2023-02-07T08:47:53;0.60;67.30
19039;DHT22;9652;49.014;12.052;2023-02-07T08:50:20;0.60;67.10
19039;DHT22;9652;49.014;12.052;2023-02-07T08:52:48;0.70;67.10
19039;DHT22;9652;49.014;12.052;2023-02-07T08:55:15;0.80;67.00
19039;DHT22;9652;49.014;12.052;2023-02-07T08:57:42;0.80;66.80
19039;DHT22;9652;49.014;12.052;2023-02-07T09:00:10;0.90;66.80
19039;DHT22;9652;49.014;12.052;2023-02-07T09:02:39;1.00;66.90
19039;DHT22;9652;49.014;12.052;2023-02-07T09:05:08;1.10;66.70
19039;DHT22;9652;49.014;12.052;2023-02-07T09:07:35;1.20;66.60
19039;DHT22;9652;49.014;12.052;2023-02-07T09:10:03;1.30;66.60
19039;DHT22;9652;49.014;12.052;2023-02-07T09:12:31;1.40;66.50
19039;DHT22;9652;49.014;12.052;2023-02-07T09:14:58;1.50;66.40
19039;DHT22;9652;49.014;12.052;2023-02-07T09:17:26;1.50;67.00
19039;DHT22;9652;49.014;12.052;2023-02-07T09:19:54;1.60;66.00
19039;DHT22;9652;49.014;12.052;2023-02-07T09:22:21;1.70;65.90
19039;DHT22;9652;49.014;12.052;2023-02-07T09:24:48;1.80;65.90
19039;DHT22;9652;49.014;12.052;2023-02-07T09:27:15;1.90;65.80
19039;DHT22;9652;49.014;12.052;2023-02-07T09:29:42;1.90;65.50
19039;DHT22;9652;49.014;12.052;2023-02-07T09:32:09;2.00;65.50
19039;DHT22;9652;49.014;12.052;2023-02-07T09:34:36;2.10;65.50
19039;DHT22;9652;49.014;12.052;2023-02-07T09:37:05;2.20;65.40
19039;DHT22;9652;49.014;12.052;2023-02-07T09:39:35;2.30;65.30
19039;DHT22;9652;49.014;12.052;2023-02-07T09:42:10;2.30;65.10
19039;DHT22;9652;49.014;12.052;2023-02-07T09:44:54;2.40;65.00
19039;DHT22;9652;49.014;12.052;2023-02-07T09:47:25;2.60;64.80
19039;DHT22;9652;49.014;12.052;2023-02-07T09:49:55;2.60;64.80
19039;DHT22;9652;49.014;12.052;2023-02-07T09:52:30;2.70;64.60
19039;DHT22;9652;49.014;12.052;2023-02-07T09:55:02;2.80;64.40
19039;DHT22;9652;49.014;12.052;2023-02-07T09:57:33;2.80;64.40
19039;DHT22;9652;49.014;12.052;2023-02-07T10:00:19;2.90;64.40
19039;DHT22;9652;49.014;12.052;2023-02-07T10:02:53;3.00;63.80
19039;DHT22;9652;49.014;12.052;2023-02-07T10:05:27;3.10;64.30
19039;DHT22;9652;49.014;12.052;2023-02-07T10:08:00;3.20;64.00
19039;DHT22;9652;49.014;12.052;2023-02-07T10:10:34;3.30;63.90
19039;DHT22;9652;49.014;12.052;2023-02-07T10:13:26;3.40;63.70
19039;DHT22;9652;49.014;12.052;2023-02-07T10:16:34;3.40;62.80
19039;DHT22;9652;49.014;12.052;2023-02-07T10:19:20;3.50;62.80
19039;DHT22;9652;49.014;12.052;2023-02-07T10:22:03;3.60;63.40
19039;DHT22;9652;49.014;12.052;2023-02-07T10:24:55;3.60;63.10
19039;DHT22;9652;49.014;12.052;2023-02-07T10:27:36;3.70;62.70
19039;DHT22;9652;49.014;12.052;2023-02-07T10:30:10;3.80;63.00
19039;DHT22;9652;49.014;12.052;2023-02-07T10:32:43;3.80;62.50
19039;DHT22;9652;49.014;12.052;2023-02-07T10:35:17;3.90;62.90
19039;DHT22;9652;49.014;12.052;2023-02-07T10:37:48;3.90;62.70
19039;DHT22;9652;49.014;12.052;2023-02-07T10:40:23;4.00;62.90
19039;DHT22;9652;49.014;12.052;2023-02-07T10:42:57;4.00;62.50
19039;DHT22;9652;49.014;12.052;2023-02-07T10:45:29;4.10;62.70
19039;DHT22;9652;49.014;12.052;2023-02-07T10:47:56;4.10;62.60
19039;DHT22;9652;49.014;12.052;2023-02-07T10:50:25;4.20;62.60
19039;DHT22;9652;49.014;12.052;2023-02-07T10:52:53;4.20;62.50
19039;DHT22;9652;49.014;12.052;2023-02-07T10:55:37;4.30;62.60
19039;DHT22;9652;49.014;12.052;2023-02-07T10:58:13;4.40;61.60
19039;DHT22;9652;49.014;12.052;2023-02-07T11:00:46;4.50;62.20
19039;DHT22;9652;49.014;12.052;2023-02-07T11:03:16;4.50;62.00
19039;DHT22;9652;49.014;12.052;2023-02-07T11:05:54;4.60;62.30
19039;DHT22;9652;49.014;12.052;2023-02-07T11:08:24;4.70;62.20
19039;DHT22;9652;49.014;12.052;2023-02-07T11:10:55;4.80;62.50
19039;DHT22;9652;49.014;12.052;2023-02-07T11:13:25;4.80;62.00
19039;DHT22;9652;49.014;12.052;2023-02-07T11:15:57;4.90;61.90
19039;DHT22;9652;49.014;12.052;2023-02-07T11:18:38;4.90;61.80
19039;DHT22;9652;49.014;12.052;2023-02-07T11:21:21;5.00;61.10
19039;DHT22;9652;49.014;12.052;2023-02-07T11:23:52;5.00;60.60
19039;DHT22;9652;49.014;12.052;2023-02-07T11:26:22;5.10;61.50
19039;DHT22;9652;49.014;12.052;2023-02-07T11:28:54;5.10;61.40
19039;DHT22;9652;49.014;12.052;2023-02-07T11:31:32;5.20;61.10
19039;DHT22;9652;49.014;12.052;2023-02-07T11:34:38;5.20;61.00
19039;DHT22;9652;49.014;12.052;2023-02-07T11:37:20;5.30;59.90
19039;DHT22;9652;49.014;12.052;2023-02-07T11:39:54;5.30;60.30
19039;DHT22;9652;49.014;12.052;2023-02-07T11:42:42;5.40;60.80
19039;DHT22;9652;49.014;12.052;2023-02-07T11:45:13;5.40;60.70
19039;DHT22;9652;49.014;12.052;2023-02-07T11:47:42;5.50;61.00
19039;DHT22;9652;49.014;12.052;2023-02-07T11:50:18;5.50;60.30
19039;DHT22;9652;49.014;12.052;2023-02-07T11:52:50;5.50;60.00
19039;DHT22;9652;49.014;12.052;2023-02-07T11:55:22;5.60;60.20
19039;DHT22;9652;49.014;12.052;2023-02-07T11:57:56;5.70;60.30
19039;DHT22;9652;49.014;12.052;2023-02-07T12:00:25;5.70;60.00
19039;DHT22;9652;49.014;12.052;2023-02-07T12:03:02;5.70;60.20
19039;DHT22;9652;49.014;12.052;2023-02-07T12:05:34;5.80;59.90
19039;DHT22;9652;49.014;12.052;2023-02-07T12:08:08;5.80;60.00
19039;DHT22;9652;49.014;12.052;2023-02-07T12:10:40;5.90;60.10
19039;DHT22;9652;49.014;12.052;2023-02-07T12:13:14;5.90;60.00
19039;DHT22;9652;49.014;12.052;2023-02-07T12:15:48;5.90;59.80
19039;DHT22;9652;49.014;12.052;2023-02-07T12:18:26;6.00;59.50
19039;DHT22;9652;49.014;12.052;2023-02-07T12:20:59;6.00;59.40
19039;DHT22;9652;49.014;12.052;2023-02-07T12:23:38;6.00;59.50
19039;DHT22;9652;49.014;12.052;2023-02-07T12:26:18;6.00;59.40
19039;DHT22;9652;49.014;12.052;2023-02-07T12:28:55;6.10;59.40
19039;DHT22;9652;49.014;12.052;2023-02-07T12:31:40;6.10;59.30
19039;DHT22;9652;49.014;12.052;2023-02-07T12:34:17;6.10;59.00
19039;DHT22;9652;49.014;12.052;2023-02-07T12:36:55;6.20;58.80
19039;DHT22;9652;49.014;12.052;2023-02-07T12:39:30;6.20;58.80
19039;DHT22;9652;49.014;12.052;2023-02-07T12:42:17;6.30;58.80
19039;DHT22;9652;49.014;12.052;2023-02-07T12:44:58;6.30;58.20
19039;DHT22;9652;49.014;12.052;2023-02-07T12:47:38;6.40;58.50
19039;DHT22;9652;49.014;12.052;2023-02-07T12:50:22;6.40;58.10
19039;DHT22;9652;49.014;12.052;2023-02-07T12:53:14;6.40;58.00
19039;DHT22;9652;49.014;12.052;2023-02-07T12:55:59;6.50;58.00
19039;DHT22;9652;49.014;12.052;2023-02-07T12:58:44;6.50;57.90
19039;DHT22;9652;49.014;12.052;2023-02-07T13:01:25;6.50;57.80
19039;DHT22;9652;49.014;12.052;2023-02-07T13:07:12;6.60;57.10
19039;DHT22;9652;49.014;12.052;2023-02-07T13:09:56;6.60;57.00
19039;DHT22;9652;49.014;12.052;2023-02-07T13:12:33;6.60;57.00
19039;DHT22;9652;49.014;12.052;2023-02-07T13:15:11;6.60;56.90
19039;DHT22;9652;49.014;12.052;2023-02-07T13:17:53;6.60;57.30
19039;DHT22;9652;49.014;12.052;2023-02-07T13:20:37;6.60;56.90
19039;DHT22;9652;49.014;12.052;2023-02-07T13:23:15;6.60;56.50
19039;DHT22;9652;49.014;12.052;2023-02-07T13:25:46;6.60;56.50
19039;DHT22;9652;49.014;12.052;2023-02-07T13:28:20;6.60;56.40
19039;DHT22;9652;49.014;12.052;2023-02-07T13:30:51;6.60;56.40
19039;DHT22;9652;49.014;12.052;2023-02-07T13:33:31;6.60;56.50
19039;DHT22;9652;49.014;12.052;2023-02-07T13:36:04;6.60;56.50
19039;DHT22;9652;49.014;12.052;2023-02-07T13:38:55;6.60;56.70
19039;DHT22;9652;49.014;12.052;2023-02-07T13:41:39;6.50;56.10
19039;DHT22;9652;49.014;12.052;2023-02-07T13:44:20;6.50;56.10
19039;DHT22;9652;49.014;12.052;2023-02-07T13:47:27;6.50;56.00
19039;DHT22;9652;49.014;12.052;2023-02-07T13:50:26;6.50;55.90
19039;DHT22;9652;49.014;12.052;2023-02-07T13:53:16;6.50;56.20
19039;DHT22;9652;49.014;12.052;2023-02-07T13:55:52;6.50;56.10
19039;DHT22;9652;49.014;12.052;2023-02-07T13:58:51;6.50;56.90
19039;DHT22;9652;49.014;12.052;2023-02-07T14:01:45;6.50;55.70
19039;DHT22;9652;49.014;12.052;2023-02-07T14:04:16;6.50;56.30
19039;DHT22;9652;49.014;12.052;2023-02-07T14:06:56;6.50;56.40
19039;DHT22;9652;49.014;12.052;2023-02-07T14:09:33;6.40;55.90
19039;DHT22;9652;49.014;12.052;2023-02-07T14:12:03;6.40;56.30
19039;DHT22;9652;49.014;12.052;2023-02-07T14:14:37;6.40;56.30
19039;DHT22;9652;49.014;12.052;2023-02-07T14:17:07;6.40;56.20
19039;DHT22;9652;49.014;12.052;2023-02-07T14:19:49;6.40;56.40
19039;DHT22;9652;49.014;12.052;2023-02-07T14:22:22;6.40;55.80
19039;DHT22;9652;49.014;12.052;2023-02-07T14:25:16;6.40;56.20
19039;DHT22;9652;49.014;12.052;2023-02-07T14:28:20;6.40;55.50
19039;DHT22;9652;49.014;12.052;2023-02-07T14:31:01;6.40;55.60
19039;DHT22;9652;49.014;12.052;2023-02-07T14:33:39;6.40;56.00
19039;DHT22;9652;49.014;12.052;2023-02-07T14:36:24;6.40;56.10
19039;DHT22;9652;49.014;12.052;2023-02-07T14:39:13;6.40;55.60
19039;DHT22;9652;49.014;12.052;2023-02-07T14:41:52;6.40;55.60
19039;DHT22;9652;49.014;12.052;2023-02-07T14:44:23;6.50;56.30
19039;DHT22;9652;49.014;12.052;2023-02-07T14:46:54;6.40;56.00
19039;DHT22;9652;49.014;12.052;2023-02-07T14:49:29;6.40;56.00
19039;DHT22;9652;49.014;12.052;2023-02-07T14:52:00;6.40;55.70
19039;DHT22;9652;49.014;12.052;2023-02-07T14:54:36;6.40;55.80
19039;DHT22;9652;49.014;12.052;2023-02-07T14:57:18;6.30;55.50
19039;DHT22;9652;49.014;12.052;2023-02-07T14:59:59;6.30;55.30
19039;DHT22;9652;49.014;12.052;2023-02-07T15:02:34;6.30;55.60
19039;DHT22;9652;49.014;12.052;2023-02-07T15:05:16;6.30;55.50
19039;DHT22;9652;49.014;12.052;2023-02-07T15:07:46;6.30;55.00
19039;DHT22;9652;49.014;12.052;2023-02-07T15:10:21;6.30;55.60
19039;DHT22;9652;49.014;12.052;2023-02-07T15:12:52;6.20;55.10
19039;DHT22;9652;49.014;12.052;2023-02-07T15:15:23;6.20;55.60
19039;DHT22;9652;49.014;12.052;2023-02-07T15:17:54;6.20;55.30
19039;DHT22;9652;49.014;12.052;2023-02-07T15:20:27;6.20;55.50
19039;DHT22;9652;49.014;12.052;2023-02-07T15:22:58;6.20;55.60
19039;DHT22;9652;49.014;12.052;2023-02-07T15:25:28;6.10;55.40
19039;DHT22;9652;49.014;12.052;2023-02-07T15:27:59;6.10;55.20
19039;DHT22;9652;49.014;12.052;2023-02-07T15:30:27;6.10;55.20
19039;DHT22;9652;49.014;12.052;2023-02-07T15:32:55;6.10;55.30
19039;DHT22;9652;49.014;12.052;2023-02-07T15:35:24;6.10;55.20
19039;DHT22;9652;49.014;12.052;2023-02-07T15:37:54;6.00;54.60
19039;DHT22;9652;49.014;12.052;2023-02-07T15:40:41;6.00;54.50
19039;DHT22;9652;49.014;12.052;2023-02-07T15:43:22;6.00;54.50
19039;DHT22;9652;49.014;12.052;2023-02-07T15:46:04;6.00;53.60
19039;DHT22;9652;49.014;12.052;2023-02-07T15:48:45;6.00;53.60
19039;DHT22;9652;49.014;12.052;2023-02-07T15:51:17;5.90;53.40
19039;DHT22;9652;49.014;12.052;2023-02-07T15:53:52;5.90;54.00
19039;DHT22;9652;49.014;12.052;2023-02-07T15:56:23;5.90;54.00
19039;DHT22;9652;49.014;12.052;2023-02-07T15:58:59;5.90;54.30
19039;DHT22;9652;49.014;12.052;2023-02-07T16:01:33;5.80;54.00
19039;DHT22;9652;49.014;12.052;2023-02-07T16:04:02;5.80;54.50
19039;DHT22;9652;49.014;12.052;2023-02-07T16:06:30;5.70;54.50
19039;DHT22;9652;49.014;12.052;2023-02-07T16:09:00;5.70;54.50
19039;DHT22;9652;49.014;12.052;2023-02-07T16:11:36;5.70;54.40
19039;DHT22;9652;49.014;12.052;2023-02-07T16:14:16;5.60;54.10
19039;DHT22;9652;49.014;12.052;2023-02-07T16:16:48;5.60;53.90
19039;DHT22;9652;49.014;12.052;2023-02-07T16:19:19;5.60;54.30
19039;DHT22;9652;49.014;12.052;2023-02-07T16:22:05;5.50;54.10
19039;DHT22;9652;49.014;12.052;2023-02-07T16:24:35;5.50;53.60